Weather at Dallas Fort Worth International Airport

Public forecast

Using degrees Fahrenheit for public forecast. Weather courtesy of forecast.io.

Current aviation weather report (METAR) for Dallas Fort Worth International Airport

Retrieved 2021/01/23 21:53 UTC (18 minutes ago):

KDFW 232153Z 12008KT 1/2SM R17C/P6000FT BR OVC002 10/10 A2997 RMK AO2 SFC VIS 1 1/4 DZE52 SLP148 P0000 T01000100

Aviation forecast (TAF) for Dallas Fort Worth International Airport

Retrieved 2021/01/23 18:36 UTC (4 hours ago):

TAF KDFW 231735Z 2318/2424 12007KT 5SM BR OVC008 TEMPO 2318/2320 2SM -DZ BR OVC003 FM240700 14006KT 1/2SM FG OVC002 FM241400 14006KT 2SM -DZ BR OVC005 FM241700 14007KT 3SM BR VCSH OVC008 FM241900 14007KT 3SM -SHRA BR VCTS OVC007CB FM242300 15006KT 6SM BR VCSH OVC006